sensor_id;sensor_type;location;lat;lon;timestamp;P1;durP1;ratioP1;P2;durP2;ratioP2
56752;SDS011;42627;42.646;23.642;2023-05-27T00:06:47;8.80;;;4.10;;
56752;SDS011;42627;42.646;23.642;2023-05-27T00:08:48;11.25;;;3.88;;
56752;SDS011;42627;42.646;23.642;2023-05-27T00:10:50;6.10;;;3.35;;
56752;SDS011;42627;42.646;23.642;2023-05-27T00:12:51;7.00;;;3.50;;
56752;SDS011;42627;42.646;23.642;2023-05-27T00:14:52;9.15;;;3.30;;
56752;SDS011;42627;42.646;23.642;2023-05-27T00:16:53;7.63;;;3.33;;
56752;SDS011;42627;42.646;23.642;2023-05-27T00:19:10;6.30;;;3.85;;
56752;SDS011;42627;42.646;23.642;2023-05-27T00:21:11;10.55;;;3.60;;
56752;SDS011;42627;42.646;23.642;2023-05-27T00:23:12;8.20;;;4.07;;
56752;SDS011;42627;42.646;23.642;2023-05-27T00:25:13;8.35;;;3.60;;
56752;SDS011;42627;42.646;23.642;2023-05-27T00:27:14;8.02;;;4.03;;
56752;SDS011;42627;42.646;23.642;2023-05-27T00:34:32;6.97;;;3.63;;
56752;SDS011;42627;42.646;23.642;2023-05-27T00:36:34;8.52;;;4.03;;
56752;SDS011;42627;42.646;23.642;2023-05-27T00:38:35;10.07;;;4.35;;
56752;SDS011;42627;42.646;23.642;2023-05-27T00:40:36;11.05;;;4.20;;
56752;SDS011;42627;42.646;23.642;2023-05-27T00:42:40;7.28;;;4.25;;
56752;SDS011;42627;42.646;23.642;2023-05-27T00:44:41;8.50;;;4.43;;
56752;SDS011;42627;42.646;23.642;2023-05-27T00:46:42;8.85;;;4.40;;
56752;SDS011;42627;42.646;23.642;2023-05-27T00:48:58;5.95;;;3.47;;
56752;SDS011;42627;42.646;23.642;2023-05-27T00:50:59;8.07;;;4.40;;
56752;SDS011;42627;42.646;23.642;2023-05-27T00:53:00;10.77;;;4.53;;
56752;SDS011;42627;42.646;23.642;2023-05-27T00:55:02;9.05;;;4.47;;
56752;SDS011;42627;42.646;23.642;2023-05-27T00:57:03;6.82;;;4.25;;
56752;SDS011;42627;42.646;23.642;2023-05-27T01:04:40;10.13;;;4.60;;
56752;SDS011;42627;42.646;23.642;2023-05-27T01:06:48;8.63;;;4.93;;
56752;SDS011;42627;42.646;23.642;2023-05-27T01:08:58;8.98;;;4.43;;
56752;SDS011;42627;42.646;23.642;2023-05-27T01:11:00;10.48;;;4.88;;
56752;SDS011;42627;42.646;23.642;2023-05-27T01:13:02;9.88;;;4.60;;
56752;SDS011;42627;42.646;23.642;2023-05-27T01:15:07;7.05;;;4.35;;
56752;SDS011;42627;42.646;23.642;2023-05-27T01:17:08;10.25;;;4.40;;
56752;SDS011;42627;42.646;23.642;2023-05-27T01:21:35;8.27;;;4.18;;
56752;SDS011;42627;42.646;23.642;2023-05-27T01:23:41;8.40;;;3.90;;
56752;SDS011;42627;42.646;23.642;2023-05-27T01:25:42;7.97;;;4.55;;
56752;SDS011;42627;42.646;23.642;2023-05-27T01:27:43;7.07;;;3.97;;
56752;SDS011;42627;42.646;23.642;2023-05-27T01:37:18;6.45;;;3.95;;
56752;SDS011;42627;42.646;23.642;2023-05-27T01:39:19;8.40;;;3.92;;
56752;SDS011;42627;42.646;23.642;2023-05-27T01:41:20;6.05;;;3.63;;
56752;SDS011;42627;42.646;23.642;2023-05-27T01:43:22;7.10;;;3.78;;
56752;SDS011;42627;42.646;23.642;2023-05-27T01:45:24;7.03;;;3.85;;
56752;SDS011;42627;42.646;23.642;2023-05-27T01:47:26;6.32;;;3.60;;
56752;SDS011;42627;42.646;23.642;2023-05-27T01:49:49;6.32;;;3.40;;
56752;SDS011;42627;42.646;23.642;2023-05-27T01:51:51;6.10;;;3.58;;
56752;SDS011;42627;42.646;23.642;2023-05-27T01:53:55;7.03;;;4.20;;
56752;SDS011;42627;42.646;23.642;2023-05-27T01:55:56;6.47;;;3.58;;
56752;SDS011;42627;42.646;23.642;2023-05-27T02:05:18;7.03;;;4.18;;
56752;SDS011;42627;42.646;23.642;2023-05-27T02:07:20;7.90;;;4.40;;
56752;SDS011;42627;42.646;23.642;2023-05-27T02:09:22;7.90;;;3.67;;
56752;SDS011;42627;42.646;23.642;2023-05-27T02:11:23;7.22;;;4.07;;
56752;SDS011;42627;42.646;23.642;2023-05-27T02:13:27;9.60;;;4.13;;
56752;SDS011;42627;42.646;23.642;2023-05-27T02:15:28;6.43;;;4.00;;
56752;SDS011;42627;42.646;23.642;2023-05-27T02:19:40;6.20;;;3.28;;
56752;SDS011;42627;42.646;23.642;2023-05-27T02:21:41;8.70;;;3.60;;
56752;SDS011;42627;42.646;23.642;2023-05-27T02:23:42;6.50;;;3.22;;
56752;SDS011;42627;42.646;23.642;2023-05-27T02:25:43;6.68;;;3.65;;
56752;SDS011;42627;42.646;23.642;2023-05-27T02:33:17;6.53;;;3.22;;
56752;SDS011;42627;42.646;23.642;2023-05-27T02:35:18;6.13;;;3.40;;
56752;SDS011;42627;42.646;23.642;2023-05-27T02:37:19;6.35;;;3.42;;
56752;SDS011;42627;42.646;23.642;2023-05-27T02:39:20;6.82;;;3.53;;
56752;SDS011;42627;42.646;23.642;2023-05-27T02:41:21;8.35;;;3.42;;
56752;SDS011;42627;42.646;23.642;2023-05-27T02:43:22;7.43;;;3.83;;
56752;SDS011;42627;42.646;23.642;2023-05-27T02:45:24;9.75;;;5.15;;
56752;SDS011;42627;42.646;23.642;2023-05-27T02:49:36;9.80;;;4.80;;
56752;SDS011;42627;42.646;23.642;2023-05-27T02:51:37;8.75;;;4.20;;
56752;SDS011;42627;42.646;23.642;2023-05-27T02:53:38;7.70;;;3.95;;
56752;SDS011;42627;42.646;23.642;2023-05-27T02:55:39;10.88;;;4.93;;
56752;SDS011;42627;42.646;23.642;2023-05-27T03:05:23;8.60;;;4.55;;
56752;SDS011;42627;42.646;23.642;2023-05-27T03:07:24;8.25;;;4.05;;
56752;SDS011;42627;42.646;23.642;2023-05-27T03:09:25;7.65;;;4.47;;
56752;SDS011;42627;42.646;23.642;2023-05-27T03:11:26;9.15;;;5.03;;
56752;SDS011;42627;42.646;23.642;2023-05-27T03:13:27;8.02;;;4.93;;
56752;SDS011;42627;42.646;23.642;2023-05-27T03:15:28;8.07;;;4.35;;
56752;SDS011;42627;42.646;23.642;2023-05-27T03:17:45;7.15;;;4.05;;
56752;SDS011;42627;42.646;23.642;2023-05-27T03:21:49;8.68;;;4.25;;
56752;SDS011;42627;42.646;23.642;2023-05-27T03:23:51;7.00;;;4.30;;
56752;SDS011;42627;42.646;23.642;2023-05-27T03:25:52;10.13;;;4.28;;
56752;SDS011;42627;42.646;23.642;2023-05-27T03:33:18;9.35;;;4.95;;
56752;SDS011;42627;42.646;23.642;2023-05-27T03:35:23;8.07;;;3.92;;
56752;SDS011;42627;42.646;23.642;2023-05-27T03:37:24;7.57;;;4.00;;
56752;SDS011;42627;42.646;23.642;2023-05-27T03:39:25;7.70;;;4.22;;
56752;SDS011;42627;42.646;23.642;2023-05-27T03:41:26;8.40;;;4.32;;
56752;SDS011;42627;42.646;23.642;2023-05-27T03:43:27;6.90;;;4.00;;
56752;SDS011;42627;42.646;23.642;2023-05-27T03:45:28;9.45;;;4.55;;
56752;SDS011;42627;42.646;23.642;2023-05-27T03:49:40;7.60;;;4.25;;
56752;SDS011;42627;42.646;23.642;2023-05-27T03:51:41;7.50;;;3.95;;
56752;SDS011;42627;42.646;23.642;2023-05-27T03:53:42;8.25;;;4.20;;
56752;SDS011;42627;42.646;23.642;2023-05-27T03:55:43;7.10;;;3.90;;
56752;SDS011;42627;42.646;23.642;2023-05-27T03:57:44;8.13;;;4.60;;
56752;SDS011;42627;42.646;23.642;2023-05-27T03:59:45;7.03;;;4.35;;
56752;SDS011;42627;42.646;23.642;2023-05-27T04:07:03;10.10;;;4.38;;
56752;SDS011;42627;42.646;23.642;2023-05-27T04:09:05;9.73;;;5.10;;
56752;SDS011;42627;42.646;23.642;2023-05-27T04:13:16;8.30;;;4.28;;
56752;SDS011;42627;42.646;23.642;2023-05-27T04:15:17;10.45;;;5.53;;
56752;SDS011;42627;42.646;23.642;2023-05-27T04:19:39;7.20;;;4.25;;
56752;SDS011;42627;42.646;23.642;2023-05-27T04:21:40;11.15;;;5.72;;
56752;SDS011;42627;42.646;23.642;2023-05-27T04:23:42;11.13;;;6.30;;
56752;SDS011;42627;42.646;23.642;2023-05-27T04:25:45;10.80;;;6.50;;
56752;SDS011;42627;42.646;23.642;2023-05-27T04:27:48;10.13;;;5.45;;
56752;SDS011;42627;42.646;23.642;2023-05-27T04:29:50;12.80;;;5.68;;
56752;SDS011;42627;42.646;23.642;2023-05-27T04:32:09;12.65;;;6.13;;
56752;SDS011;42627;42.646;23.642;2023-05-27T04:34:10;9.52;;;5.38;;
56752;SDS011;42627;42.646;23.642;2023-05-27T04:36:11;8.70;;;4.47;;
56752;SDS011;42627;42.646;23.642;2023-05-27T04:38:19;9.38;;;4.47;;
56752;SDS011;42627;42.646;23.642;2023-05-27T04:40:21;10.18;;;4.55;;
56752;SDS011;42627;42.646;23.642;2023-05-27T04:42:25;9.07;;;4.82;;
56752;SDS011;42627;42.646;23.642;2023-05-27T04:49:32;9.43;;;5.53;;
56752;SDS011;42627;42.646;23.642;2023-05-27T04:51:34;12.80;;;5.88;;
56752;SDS011;42627;42.646;23.642;2023-05-27T04:53:35;11.15;;;5.75;;
56752;SDS011;42627;42.646;23.642;2023-05-27T04:55:39;11.70;;;6.35;;
56752;SDS011;42627;42.646;23.642;2023-05-27T04:57:41;12.63;;;5.93;;
56752;SDS011;42627;42.646;23.642;2023-05-27T04:59:43;12.20;;;6.90;;
56752;SDS011;42627;42.646;23.642;2023-05-27T05:04:09;14.40;;;7.45;;
56752;SDS011;42627;42.646;23.642;2023-05-27T05:06:14;18.55;;;9.00;;
56752;SDS011;42627;42.646;23.642;2023-05-27T05:08:18;16.90;;;8.50;;
56752;SDS011;42627;42.646;23.642;2023-05-27T05:10:19;18.63;;;8.60;;
56752;SDS011;42627;42.646;23.642;2023-05-27T05:32:54;17.92;;;9.52;;
56752;SDS011;42627;42.646;23.642;2023-05-27T05:34:55;19.45;;;7.60;;
56752;SDS011;42627;42.646;23.642;2023-05-27T05:36:56;15.85;;;8.85;;
56752;SDS011;42627;42.646;23.642;2023-05-27T05:38:57;18.90;;;9.23;;
56752;SDS011;42627;42.646;23.642;2023-05-27T05:41:13;16.35;;;8.85;;
56752;SDS011;42627;42.646;23.642;2023-05-27T06:00:55;16.65;;;9.40;;
56752;SDS011;42627;42.646;23.642;2023-05-27T06:02:57;19.10;;;9.13;;
56752;SDS011;42627;42.646;23.642;2023-05-27T06:04:58;16.80;;;9.18;;
56752;SDS011;42627;42.646;23.642;2023-05-27T06:06:59;15.05;;;8.75;;
56752;SDS011;42627;42.646;23.642;2023-05-27T06:09:00;17.60;;;7.97;;
56752;SDS011;42627;42.646;23.642;2023-05-27T06:11:01;17.73;;;9.95;;
56752;SDS011;42627;42.646;23.642;2023-05-27T06:13:03;14.82;;;8.10;;
56752;SDS011;42627;42.646;23.642;2023-05-27T06:15:04;12.90;;;7.72;;
56752;SDS011;42627;42.646;23.642;2023-05-27T06:21:50;14.02;;;8.07;;
56752;SDS011;42627;42.646;23.642;2023-05-27T06:24:01;15.63;;;7.30;;
56752;SDS011;42627;42.646;23.642;2023-05-27T06:26:02;11.82;;;7.30;;
56752;SDS011;42627;42.646;23.642;2023-05-27T06:28:03;12.68;;;6.82;;
56752;SDS011;42627;42.646;23.642;2023-05-27T06:30:04;13.35;;;7.07;;
56752;SDS011;42627;42.646;23.642;2023-05-27T06:32:15;13.93;;;7.03;;
56752;SDS011;42627;42.646;23.642;2023-05-27T06:34:16;13.27;;;5.85;;
56752;SDS011;42627;42.646;23.642;2023-05-27T06:36:17;13.00;;;6.78;;
56752;SDS011;42627;42.646;23.642;2023-05-27T06:38:18;15.13;;;7.90;;
56752;SDS011;42627;42.646;23.642;2023-05-27T06:40:19;13.95;;;8.63;;
56752;SDS011;42627;42.646;23.642;2023-05-27T06:42:21;13.77;;;7.82;;
56752;SDS011;42627;42.646;23.642;2023-05-27T06:44:22;14.43;;;7.80;;
56752;SDS011;42627;42.646;23.642;2023-05-27T06:46:38;17.60;;;9.32;;
56752;SDS011;42627;42.646;23.642;2023-05-27T06:48:39;17.15;;;9.55;;
56752;SDS011;42627;42.646;23.642;2023-05-27T06:50:40;17.85;;;9.10;;
56752;SDS011;42627;42.646;23.642;2023-05-27T06:52:41;17.27;;;9.65;;
56752;SDS011;42627;42.646;23.642;2023-05-27T06:54:42;18.60;;;8.95;;
56752;SDS011;42627;42.646;23.642;2023-05-27T07:01:53;16.98;;;8.55;;
56752;SDS011;42627;42.646;23.642;2023-05-27T07:03:56;14.38;;;8.07;;
56752;SDS011;42627;42.646;23.642;2023-05-27T07:05:57;13.55;;;8.13;;
56752;SDS011;42627;42.646;23.642;2023-05-27T07:07:58;12.88;;;6.95;;
56752;SDS011;42627;42.646;23.642;2023-05-27T07:09:59;14.30;;;7.22;;
56752;SDS011;42627;42.646;23.642;2023-05-27T07:12:00;13.13;;;6.85;;
56752;SDS011;42627;42.646;23.642;2023-05-27T07:14:01;11.75;;;7.32;;
56752;SDS011;42627;42.646;23.642;2023-05-27T07:16:02;16.80;;;8.38;;
56752;SDS011;42627;42.646;23.642;2023-05-27T07:18:04;15.02;;;8.00;;
56752;SDS011;42627;42.646;23.642;2023-05-27T07:20:05;16.08;;;8.70;;
56752;SDS011;42627;42.646;23.642;2023-05-27T07:22:06;15.35;;;8.25;;
56752;SDS011;42627;42.646;23.642;2023-05-27T07:24:07;13.98;;;7.55;;
56752;SDS011;42627;42.646;23.642;2023-05-27T07:26:08;14.73;;;7.88;;
56752;SDS011;42627;42.646;23.642;2023-05-27T07:28:09;15.77;;;7.70;;
56752;SDS011;42627;42.646;23.642;2023-05-27T07:30:10;13.68;;;7.53;;
56752;SDS011;42627;42.646;23.642;2023-05-27T07:32:29;14.15;;;7.30;;
56752;SDS011;42627;42.646;23.642;2023-05-27T07:36:56;12.27;;;6.82;;
56752;SDS011;42627;42.646;23.642;2023-05-27T07:38:57;14.30;;;7.15;;
56752;SDS011;42627;42.646;23.642;2023-05-27T07:40:58;13.77;;;7.85;;
56752;SDS011;42627;42.646;23.642;2023-05-27T07:42:59;17.20;;;7.78;;
56752;SDS011;42627;42.646;23.642;2023-05-27T07:45:00;12.52;;;7.30;;
56752;SDS011;42627;42.646;23.642;2023-05-27T07:47:01;14.30;;;7.07;;
56752;SDS011;42627;42.646;23.642;2023-05-27T07:49:02;12.45;;;6.97;;
56752;SDS011;42627;42.646;23.642;2023-05-27T07:53:31;12.93;;;7.50;;
56752;SDS011;42627;42.646;23.642;2023-05-27T07:55:32;17.33;;;7.90;;
56752;SDS011;42627;42.646;23.642;2023-05-27T07:57:33;13.77;;;8.15;;
56752;SDS011;42627;42.646;23.642;2023-05-27T07:59:34;15.15;;;8.40;;
56752;SDS011;42627;42.646;23.642;2023-05-27T08:01:53;13.80;;;7.43;;
56752;SDS011;42627;42.646;23.642;2023-05-27T08:06:38;17.98;;;9.27;;
56752;SDS011;42627;42.646;23.642;2023-05-27T08:08:39;15.07;;;7.53;;
56752;SDS011;42627;42.646;23.642;2023-05-27T08:10:40;13.88;;;8.20;;
56752;SDS011;42627;42.646;23.642;2023-05-27T08:12:41;14.38;;;7.95;;
56752;SDS011;42627;42.646;23.642;2023-05-27T08:14:42;13.52;;;7.88;;
56752;SDS011;42627;42.646;23.642;2023-05-27T08:16:44;14.30;;;8.27;;
56752;SDS011;42627;42.646;23.642;2023-05-27T08:18:45;13.85;;;8.32;;
56752;SDS011;42627;42.646;23.642;2023-05-27T08:20:45;15.75;;;7.70;;
56752;SDS011;42627;42.646;23.642;2023-05-27T08:22:47;11.82;;;7.32;;
56752;SDS011;42627;42.646;23.642;2023-05-27T08:24:48;14.35;;;7.78;;
56752;SDS011;42627;42.646;23.642;2023-05-27T08:26:49;16.23;;;7.18;;
56752;SDS011;42627;42.646;23.642;2023-05-27T08:28:50;12.27;;;7.00;;
56752;SDS011;42627;42.646;23.642;2023-05-27T08:30:51;13.82;;;8.15;;
56752;SDS011;42627;42.646;23.642;2023-05-27T08:32:52;15.77;;;7.57;;
56752;SDS011;42627;42.646;23.642;2023-05-27T08:34:59;16.98;;;8.13;;
56752;SDS011;42627;42.646;23.642;2023-05-27T08:37:18;12.73;;;7.22;;
56752;SDS011;42627;42.646;23.642;2023-05-27T08:39:22;14.75;;;8.20;;
56752;SDS011;42627;42.646;23.642;2023-05-27T08:41:27;12.70;;;7.55;;
56752;SDS011;42627;42.646;23.642;2023-05-27T08:43:28;14.30;;;7.80;;
56752;SDS011;42627;42.646;23.642;2023-05-27T08:45:29;15.60;;;7.53;;
56752;SDS011;42627;42.646;23.642;2023-05-27T08:47:31;14.10;;;7.60;;
56752;SDS011;42627;42.646;23.642;2023-05-27T08:51:51;12.82;;;6.57;;
56752;SDS011;42627;42.646;23.642;2023-05-27T08:53:53;13.88;;;7.45;;
56752;SDS011;42627;42.646;23.642;2023-05-27T08:55:54;13.88;;;6.63;;
56752;SDS011;42627;42.646;23.642;2023-05-27T08:57:57;13.68;;;7.22;;
56752;SDS011;42627;42.646;23.642;2023-05-27T08:59:59;10.55;;;5.90;;
56752;SDS011;42627;42.646;23.642;2023-05-27T09:02:00;15.20;;;7.05;;
56752;SDS011;42627;42.646;23.642;2023-05-27T09:04:02;13.85;;;6.10;;
56752;SDS011;42627;42.646;23.642;2023-05-27T09:06:13;11.13;;;6.47;;
56752;SDS011;42627;42.646;23.642;2023-05-27T09:08:17;13.20;;;6.50;;
56752;SDS011;42627;42.646;23.642;2023-05-27T09:10:18;10.77;;;6.25;;
56752;SDS011;42627;42.646;23.642;2023-05-27T09:12:24;9.77;;;5.88;;
56752;SDS011;42627;42.646;23.642;2023-05-27T09:14:27;11.27;;;6.83;;
56752;SDS011;42627;42.646;23.642;2023-05-27T09:21:31;12.35;;;6.45;;
56752;SDS011;42627;42.646;23.642;2023-05-27T09:23:36;12.82;;;6.80;;
56752;SDS011;42627;42.646;23.642;2023-05-27T09:25:38;10.48;;;5.68;;
56752;SDS011;42627;42.646;23.642;2023-05-27T09:27:39;11.23;;;5.90;;
56752;SDS011;42627;42.646;23.642;2023-05-27T09:29:44;9.48;;;6.15;;
56752;SDS011;42627;42.646;23.642;2023-05-27T09:31:45;11.85;;;6.88;;
56752;SDS011;42627;42.646;23.642;2023-05-27T09:33:46;12.90;;;6.47;;
56752;SDS011;42627;42.646;23.642;2023-05-27T09:35:53;13.38;;;6.65;;
56752;SDS011;42627;42.646;23.642;2023-05-27T09:37:54;12.15;;;6.63;;
56752;SDS011;42627;42.646;23.642;2023-05-27T09:39:55;10.60;;;5.95;;
56752;SDS011;42627;42.646;23.642;2023-05-27T09:41:56;12.93;;;7.15;;
56752;SDS011;42627;42.646;23.642;2023-05-27T09:43:59;11.80;;;6.85;;
56752;SDS011;42627;42.646;23.642;2023-05-27T09:48:43;11.88;;;6.03;;
56752;SDS011;42627;42.646;23.642;2023-05-27T09:50:44;11.73;;;6.82;;
56752;SDS011;42627;42.646;23.642;2023-05-27T09:52:47;14.35;;;7.00;;
56752;SDS011;42627;42.646;23.642;2023-05-27T09:54:48;10.60;;;5.93;;
56752;SDS011;42627;42.646;23.642;2023-05-27T09:56:50;11.82;;;6.72;;
56752;SDS011;42627;42.646;23.642;2023-05-27T09:58:56;12.48;;;6.88;;
56752;SDS011;42627;42.646;23.642;2023-05-27T10:00:57;10.10;;;6.68;;
56752;SDS011;42627;42.646;23.642;2023-05-27T10:02:59;11.20;;;5.90;;
56752;SDS011;42627;42.646;23.642;2023-05-27T10:05:01;10.18;;;6.15;;
56752;SDS011;42627;42.646;23.642;2023-05-27T10:07:07;11.80;;;5.85;;
56752;SDS011;42627;42.646;23.642;2023-05-27T10:09:08;9.13;;;4.97;;
56752;SDS011;42627;42.646;23.642;2023-05-27T10:11:10;9.75;;;4.80;;
56752;SDS011;42627;42.646;23.642;2023-05-27T10:13:12;8.43;;;4.90;;
56752;SDS011;42627;42.646;23.642;2023-05-27T10:15:29;10.50;;;5.00;;
56752;SDS011;42627;42.646;23.642;2023-05-27T10:17:47;10.77;;;5.78;;
56752;SDS011;42627;42.646;23.642;2023-05-27T10:20:06;9.00;;;5.07;;
56752;SDS011;42627;42.646;23.642;2023-05-27T10:22:19;10.23;;;4.93;;
56752;SDS011;42627;42.646;23.642;2023-05-27T10:24:32;8.63;;;4.95;;
56752;SDS011;42627;42.646;23.642;2023-05-27T10:26:36;7.15;;;4.60;;
56752;SDS011;42627;42.646;23.642;2023-05-27T10:28:38;7.78;;;5.05;;
56752;SDS011;42627;42.646;23.642;2023-05-27T10:30:44;7.72;;;4.72;;
56752;SDS011;42627;42.646;23.642;2023-05-27T10:32:48;10.00;;;5.30;;
56752;SDS011;42627;42.646;23.642;2023-05-27T10:34:54;8.95;;;4.30;;
56752;SDS011;42627;42.646;23.642;2023-05-27T10:37:02;7.80;;;4.72;;
56752;SDS011;42627;42.646;23.642;2023-05-27T10:39:20;6.32;;;3.75;;
56752;SDS011;42627;42.646;23.642;2023-05-27T10:41:22;5.28;;;3.53;;
56752;SDS011;42627;42.646;23.642;2023-05-27T10:43:23;5.78;;;3.30;;
56752;SDS011;42627;42.646;23.642;2023-05-27T10:45:31;6.40;;;3.42;;
56752;SDS011;42627;42.646;23.642;2023-05-27T10:47:36;4.85;;;3.03;;
56752;SDS011;42627;42.646;23.642;2023-05-27T10:49:47;6.97;;;3.55;;
56752;SDS011;42627;42.646;23.642;2023-05-27T10:51:48;5.63;;;3.33;;
56752;SDS011;42627;42.646;23.642;2023-05-27T10:53:49;8.52;;;3.45;;
56752;SDS011;42627;42.646;23.642;2023-05-27T10:55:50;5.57;;;3.03;;
56752;SDS011;42627;42.646;23.642;2023-05-27T10:57:51;5.88;;;3.30;;
56752;SDS011;42627;42.646;23.642;2023-05-27T11:00:08;5.18;;;3.05;;
56752;SDS011;42627;42.646;23.642;2023-05-27T11:02:22;6.05;;;3.45;;
56752;SDS011;42627;42.646;23.642;2023-05-27T11:04:25;4.88;;;2.85;;
56752;SDS011;42627;42.646;23.642;2023-05-27T11:06:26;4.32;;;3.13;;
56752;SDS011;42627;42.646;23.642;2023-05-27T11:08:29;4.55;;;2.83;;
56752;SDS011;42627;42.646;23.642;2023-05-27T11:10:30;7.10;;;3.10;;
56752;SDS011;42627;42.646;23.642;2023-05-27T11:12:31;6.60;;;3.17;;
56752;SDS011;42627;42.646;23.642;2023-05-27T11:14:32;8.90;;;3.28;;
56752;SDS011;42627;42.646;23.642;2023-05-27T11:16:33;7.93;;;3.72;;
56752;SDS011;42627;42.646;23.642;2023-05-27T11:18:35;5.75;;;3.28;;
56752;SDS011;42627;42.646;23.642;2023-05-27T11:20:42;6.95;;;3.08;;
56752;SDS011;42627;42.646;23.642;2023-05-27T11:22:48;7.32;;;3.55;;
56752;SDS011;42627;42.646;23.642;2023-05-27T11:24:59;7.45;;;3.50;;
56752;SDS011;42627;42.646;23.642;2023-05-27T11:27:07;5.35;;;2.88;;
56752;SDS011;42627;42.646;23.642;2023-05-27T11:29:14;5.72;;;3.58;;
56752;SDS011;42627;42.646;23.642;2023-05-27T11:33:42;5.72;;;3.88;;
56752;SDS011;42627;42.646;23.642;2023-05-27T11:35:43;9.73;;;3.40;;
56752;SDS011;42627;42.646;23.642;2023-05-27T11:37:45;5.15;;;3.20;;
56752;SDS011;42627;42.646;23.642;2023-05-27T11:39:50;6.82;;;4.03;;
56752;SDS011;42627;42.646;23.642;2023-05-27T11:44:05;5.88;;;3.53;;
56752;SDS011;42627;42.646;23.642;2023-05-27T11:46:06;5.07;;;3.22;;
56752;SDS011;42627;42.646;23.642;2023-05-27T11:48:16;5.47;;;3.25;;
56752;SDS011;42627;42.646;23.642;2023-05-27T11:50:17;5.18;;;3.22;;
56752;SDS011;42627;42.646;23.642;2023-05-27T11:52:19;6.43;;;3.45;;
56752;SDS011;42627;42.646;23.642;2023-05-27T11:54:24;5.68;;;3.15;;
56752;SDS011;42627;42.646;23.642;2023-05-27T11:56:25;5.57;;;3.47;;
56752;SDS011;42627;42.646;23.642;2023-05-27T11:58:27;4.97;;;3.42;;
56752;SDS011;42627;42.646;23.642;2023-05-27T12:00:29;4.35;;;2.78;;
56752;SDS011;42627;42.646;23.642;2023-05-27T12:04:56;5.55;;;3.33;;
56752;SDS011;42627;42.646;23.642;2023-05-27T12:06:57;6.18;;;2.88;;
56752;SDS011;42627;42.646;23.642;2023-05-27T12:09:00;5.07;;;3.13;;
56752;SDS011;42627;42.646;23.642;2023-05-27T12:11:01;6.45;;;3.50;;
56752;SDS011;42627;42.646;23.642;2023-05-27T12:13:05;5.35;;;3.33;;
56752;SDS011;42627;42.646;23.642;2023-05-27T12:15:08;7.97;;;3.08;;
56752;SDS011;42627;42.646;23.642;2023-05-27T12:17:09;5.32;;;3.08;;
56752;SDS011;42627;42.646;23.642;2023-05-27T12:19:10;4.85;;;2.90;;
56752;SDS011;42627;42.646;23.642;2023-05-27T12:21:11;5.65;;;3.20;;
56752;SDS011;42627;42.646;23.642;2023-05-27T12:23:13;5.57;;;3.08;;
56752;SDS011;42627;42.646;23.642;2023-05-27T12:25:14;5.35;;;2.88;;
56752;SDS011;42627;42.646;23.642;2023-05-27T12:27:15;5.70;;;3.58;;
56752;SDS011;42627;42.646;23.642;2023-05-27T12:29:19;5.60;;;3.50;;
56752;SDS011;42627;42.646;23.642;2023-05-27T12:31:26;5.07;;;2.95;;
56752;SDS011;42627;42.646;23.642;2023-05-27T12:33:32;5.97;;;3.33;;
56752;SDS011;42627;42.646;23.642;2023-05-27T12:35:34;5.85;;;3.25;;
56752;SDS011;42627;42.646;23.642;2023-05-27T12:37:35;6.85;;;3.22;;
56752;SDS011;42627;42.646;23.642;2023-05-27T12:39:36;5.35;;;3.35;;
56752;SDS011;42627;42.646;23.642;2023-05-27T12:41:37;5.60;;;3.20;;
56752;SDS011;42627;42.646;23.642;2023-05-27T12:43:38;8.43;;;4.25;;
56752;SDS011;42627;42.646;23.642;2023-05-27T12:45:39;5.57;;;3.20;;
56752;SDS011;42627;42.646;23.642;2023-05-27T12:50:00;7.78;;;3.42;;
56752;SDS011;42627;42.646;23.642;2023-05-27T12:52:01;6.43;;;3.60;;
56752;SDS011;42627;42.646;23.642;2023-05-27T12:54:03;5.53;;;3.22;;
56752;SDS011;42627;42.646;23.642;2023-05-27T12:56:04;7.70;;;3.72;;
56752;SDS011;42627;42.646;23.642;2023-05-27T12:58:14;5.18;;;3.05;;
56752;SDS011;42627;42.646;23.642;2023-05-27T13:00:33;5.38;;;3.28;;
56752;SDS011;42627;42.646;23.642;2023-05-27T13:02:46;6.13;;;3.40;;
56752;SDS011;42627;42.646;23.642;2023-05-27T13:04:47;8.60;;;3.53;;
56752;SDS011;42627;42.646;23.642;2023-05-27T13:06:50;6.57;;;3.97;;
56752;SDS011;42627;42.646;23.642;2023-05-27T13:08:51;5.22;;;3.13;;
56752;SDS011;42627;42.646;23.642;2023-05-27T13:10:52;6.20;;;3.22;;
56752;SDS011;42627;42.646;23.642;2023-05-27T13:12:53;5.88;;;3.42;;
56752;SDS011;42627;42.646;23.642;2023-05-27T13:14:54;5.93;;;3.60;;
56752;SDS011;42627;42.646;23.642;2023-05-27T13:16:56;9.23;;;3.17;;
56752;SDS011;42627;42.646;23.642;2023-05-27T13:18:57;5.88;;;2.97;;
56752;SDS011;42627;42.646;23.642;2023-05-27T13:20:58;5.43;;;3.20;;
56752;SDS011;42627;42.646;23.642;2023-05-27T13:22:59;4.95;;;3.20;;
56752;SDS011;42627;42.646;23.642;2023-05-27T13:25:00;4.45;;;2.95;;
56752;SDS011;42627;42.646;23.642;2023-05-27T13:27:01;5.10;;;3.13;;
56752;SDS011;42627;42.646;23.642;2023-05-27T13:34:03;6.05;;;3.30;;
56752;SDS011;42627;42.646;23.642;2023-05-27T13:36:04;5.75;;;3.00;;
56752;SDS011;42627;42.646;23.642;2023-05-27T13:38:06;5.10;;;2.85;;
56752;SDS011;42627;42.646;23.642;2023-05-27T13:40:12;4.82;;;2.88;;
56752;SDS011;42627;42.646;23.642;2023-05-27T13:42:13;5.05;;;2.58;;
56752;SDS011;42627;42.646;23.642;2023-05-27T13:44:14;5.03;;;3.10;;
56752;SDS011;42627;42.646;23.642;2023-05-27T13:46:15;6.13;;;2.80;;
56752;SDS011;42627;42.646;23.642;2023-05-27T13:48:22;6.60;;;3.03;;
56752;SDS011;42627;42.646;23.642;2023-05-27T13:50:23;6.03;;;3.03;;
56752;SDS011;42627;42.646;23.642;2023-05-27T13:52:24;5.25;;;2.72;;
56752;SDS011;42627;42.646;23.642;2023-05-27T13:54:26;5.93;;;3.38;;
56752;SDS011;42627;42.646;23.642;2023-05-27T13:56:27;5.40;;;3.10;;
56752;SDS011;42627;42.646;23.642;2023-05-27T13:58:40;5.07;;;3.00;;
56752;SDS011;42627;42.646;23.642;2023-05-27T14:03:37;6.57;;;3.60;;
56752;SDS011;42627;42.646;23.642;2023-05-27T14:05:38;4.70;;;2.70;;
56752;SDS011;42627;42.646;23.642;2023-05-27T14:07:40;6.53;;;2.67;;
56752;SDS011;42627;42.646;23.642;2023-05-27T14:09:46;4.57;;;3.00;;
56752;SDS011;42627;42.646;23.642;2023-05-27T14:11:47;4.38;;;2.72;;
56752;SDS011;42627;42.646;23.642;2023-05-27T14:13:48;5.88;;;3.45;;
56752;SDS011;42627;42.646;23.642;2023-05-27T14:15:50;4.80;;;2.70;;
56752;SDS011;42627;42.646;23.642;2023-05-27T14:17:57;6.80;;;3.00;;
56752;SDS011;42627;42.646;23.642;2023-05-27T14:20:01;7.60;;;2.90;;
56752;SDS011;42627;42.646;23.642;2023-05-27T14:22:02;4.80;;;2.67;;
56752;SDS011;42627;42.646;23.642;2023-05-27T14:24:03;6.10;;;2.67;;
56752;SDS011;42627;42.646;23.642;2023-05-27T14:26:05;5.50;;;2.70;;
56752;SDS011;42627;42.646;23.642;2023-05-27T14:30:44;4.38;;;2.70;;
56752;SDS011;42627;42.646;23.642;2023-05-27T14:32:54;6.75;;;2.53;;
56752;SDS011;42627;42.646;23.642;2023-05-27T14:34:55;5.60;;;2.50;;
56752;SDS011;42627;42.646;23.642;2023-05-27T14:36:56;4.63;;;2.47;;
56752;SDS011;42627;42.646;23.642;2023-05-27T14:38:57;5.07;;;2.72;;
56752;SDS011;42627;42.646;23.642;2023-05-27T14:40:58;4.93;;;3.10;;
56752;SDS011;42627;42.646;23.642;2023-05-27T14:43:00;4.85;;;2.90;;
56752;SDS011;42627;42.646;23.642;2023-05-27T14:45:01;9.57;;;2.75;;
56752;SDS011;42627;42.646;23.642;2023-05-27T14:47:14;9.27;;;3.10;;
56752;SDS011;42627;42.646;23.642;2023-05-27T14:49:15;4.70;;;3.13;;